Time;durP1;ratioP1;P1;durP2;ratioP2;P2;SDS_P1;SDS_P2;PMS_P1;PMS_P2;Temp;Humidity;BMP_temperature;BMP_pressure;BME280_temperature;BME280_humidity;BME280_pressure;Samples;Min_cycle;Max_cycle;Signal;HPM_P1;HPM_P2
2022/07/23 00:02:21;;;;;;;6.93;4.63;;;;;;;16.56;95.75;101736.78;5113491;28;20040;-58
2022/07/23 00:04:46;;;;;;;7.25;4.60;;;;;;;16.56;95.32;101742.94;5113239;28;20052;-58
2022/07/23 00:07:11;;;;;;;6.40;4.97;;;;;;;16.54;94.66;101742.09;5113203;28;20038;-58
2022/07/23 00:09:37;;;;;;;5.65;4.47;;;;;;;16.41;95.88;101740.66;5113483;28;20319;-58
2022/07/23 00:12:02;;;;;;;7.55;4.60;;;;;;;16.44;96.10;101745.00;5113207;28;20439;-57
2022/07/23 00:14:27;;;;;;;7.97;5.00;;;;;;;16.43;96.41;101744.13;5113122;28;20106;-58
2022/07/23 00:16:53;;;;;;;9.60;4.80;;;;;;;16.43;95.89;101741.47;5113214;28;20408;-59
2022/07/23 00:19:18;;;;;;;6.50;4.90;;;;;;;16.42;95.69;101731.81;5113032;28;20039;-58
2022/07/23 00:21:43;;;;;;;5.57;4.57;;;;;;;16.41;96.14;101740.66;5112683;28;20039;-58
2022/07/23 00:24:08;;;;;;;10.57;5.32;;;;;;;16.40;96.25;101732.75;5112980;28;20043;-58
2022/07/23 00:26:34;;;;;;;7.70;4.57;;;;;;;16.44;95.87;101739.72;5113024;28;20031;-58
2022/07/23 00:28:59;;;;;;;7.10;4.93;;;;;;;16.41;96.01;101734.50;5112957;28;20458;-58
2022/07/23 00:31:24;;;;;;;5.35;4.53;;;;;;;16.33;96.27;101727.59;5112576;28;20032;-58
2022/07/23 00:33:50;;;;;;;7.63;4.72;;;;;;;16.39;96.27;101738.94;5112915;28;20043;-58
2022/07/23 00:36:15;;;;;;;6.85;5.60;;;;;;;16.35;96.36;101732.84;5112674;28;20427;-58
2022/07/23 00:38:40;;;;;;;5.78;4.55;;;;;;;16.27;95.56;101732.19;5112702;28;20031;-58
2022/07/23 00:41:06;;;;;;;7.28;4.60;;;;;;;16.30;95.61;101734.72;5112440;28;20135;-58
2022/07/23 00:43:31;;;;;;;7.43;4.80;;;;;;;16.22;95.93;101734.03;5112496;28;20036;-57
2022/07/23 00:45:56;;;;;;;7.10;4.63;;;;;;;16.15;96.35;101733.28;5112703;28;20049;-58
2022/07/23 00:48:21;;;;;;;7.07;4.65;;;;;;;16.06;96.23;101724.72;5112586;28;20035;-59
2022/07/23 00:50:47;;;;;;;6.93;4.82;;;;;;;16.13;96.18;101726.31;5112117;28;20054;-58
2022/07/23 00:53:13;;;;;;;7.70;4.75;;;;;;;16.12;95.62;101732.50;5112363;28;20132;-58
2022/07/23 00:55:39;;;;;;;7.35;5.38;;;;;;;16.06;96.62;101738.81;5111992;28;20036;-59
2022/07/23 00:58:04;;;;;;;6.65;4.53;;;;;;;16.06;96.67;101736.16;5112669;28;20038;-58
2022/07/23 01:00:30;;;;;;;5.72;4.40;;;;;;;16.07;96.43;101729.09;5112358;28;20039;-58
2022/07/23 01:02:55;;;;;;;8.95;4.72;;;;;;;16.05;96.06;101726.50;5112490;28;20107;-59
2022/07/23 01:05:24;;;;;;;5.47;4.50;;;;;;;16.01;95.92;101730.09;5112265;28;20416;-58
2022/07/23 01:07:51;;;;;;;7.97;5.07;;;;;;;15.91;96.68;101734.72;5112245;28;20039;-59
2022/07/23 01:10:32;;;;;;;8.15;4.60;;;;;;;15.91;96.66;101732.09;5112203;28;20706;-58
2022/07/23 01:12:59;;;;;;;6.03;4.85;;;;;;;15.86;96.88;101731.31;5112289;28;20118;-58
2022/07/23 01:15:24;;;;;;;9.25;4.70;;;;;;;15.85;97.83;101736.59;5112298;28;20606;-58
2022/07/23 01:17:50;;;;;;;8.52;5.15;;;;;;;15.80;98.10;101731.41;5112093;28;20031;-58
2022/07/23 01:20:16;;;;;;;5.70;4.60;;;;;;;15.76;98.36;101724.47;5112099;28;20104;-58
2022/07/23 01:22:42;;;;;;;6.18;4.60;;;;;;;15.79;97.92;101728.81;5111908;28;20039;-58
2022/07/23 01:25:08;;;;;;;8.38;4.97;;;;;;;15.64;97.75;101725.59;5112030;28;20078;-58
2022/07/23 01:27:33;;;;;;;5.82;5.05;;;;;;;15.57;98.56;101726.63;5111933;28;20067;-57
2022/07/23 01:30:00;;;;;;;6.85;5.60;;;;;;;15.48;98.62;101739.94;5112184;28;20038;-57
2022/07/23 01:32:25;;;;;;;7.93;5.13;;;;;;;15.50;98.86;101735.53;5111840;28;20051;-57
2022/07/23 01:34:51;;;;;;;6.45;5.28;;;;;;;15.51;99.22;101726.72;5111954;28;20055;-58
2022/07/23 01:37:16;;;;;;;6.30;4.72;;;;;;;15.39;98.41;101712.91;5112026;28;20126;-58
2022/07/23 01:39:41;;;;;;;6.57;5.03;;;;;;;15.41;99.18;101719.84;5112074;28;20482;-58
2022/07/23 01:42:08;;;;;;;6.50;5.28;;;;;;;15.37;99.60;101723.47;5111825;28;20054;-58
2022/07/23 01:44:33;;;;;;;8.68;5.50;;;;;;;15.45;98.98;101723.31;5111873;28;20031;-59
2022/07/23 01:46:58;;;;;;;6.57;5.18;;;;;;;15.45;99.21;101728.59;5112112;28;20106;-58
2022/07/23 01:49:23;;;;;;;9.45;4.88;;;;;;;15.36;98.65;101720.84;5111782;28;20054;-58
2022/07/23 01:52:01;;;;;;;7.25;5.78;;;;;;;15.11;99.03;101723.06;5111583;28;20042;-57
2022/07/23 01:54:27;;;;;;;8.43;5.60;;;;;;;14.95;100.00;101709.28;5111784;28;20039;-58
2022/07/23 01:56:53;;;;;;;7.57;5.38;;;;;;;14.99;100.00;101716.25;5111916;28;20035;-57
2022/07/23 01:59:18;;;;;;;6.25;5.30;;;;;;;15.08;100.00;101717.84;5111916;28;20435;-58
2022/07/23 02:01:43;;;;;;;7.53;5.50;;;;;;;15.06;100.00;101719.66;5111516;28;20035;-58
2022/07/23 02:04:08;;;;;;;7.28;5.68;;;;;;;15.10;100.00;101716.94;5111402;28;20035;-58
2022/07/23 02:06:34;;;;;;;6.68;5.18;;;;;;;15.14;99.94;101715.09;5112007;28;20028;-58
2022/07/23 02:08:59;;;;;;;7.13;5.20;;;;;;;15.04;99.82;101709.16;5115680;28;20165;-58
2022/07/23 02:11:24;;;;;;;6.15;5.30;;;;;;;14.93;99.97;101711.94;5115201;28;20032;-58
2022/07/23 02:13:49;;;;;;;8.85;5.28;;;;;;;14.80;100.00;101713.06;5115645;28;20084;-58
2022/07/23 02:16:15;;;;;;;7.70;5.50;;;;;;;14.71;100.00;101713.25;5115469;28;20089;-58
2022/07/23 02:18:40;;;;;;;8.00;5.70;;;;;;;14.79;100.00;101713.97;5115071;28;20072;-58
2022/07/23 02:21:05;;;;;;;6.78;5.43;;;;;;;14.90;100.00;101709.38;5115373;28;20062;-58
2022/07/23 02:23:31;;;;;;;7.13;5.63;;;;;;;14.93;100.00;101709.31;5115285;28;20035;-58
2022/07/23 02:25:56;;;;;;;8.02;5.68;;;;;;;14.97;100.00;101710.13;5115288;28;20062;-58
2022/07/23 02:28:21;;;;;;;8.48;5.60;;;;;;;14.95;99.56;101712.81;5115464;28;20358;-57
2022/07/23 02:30:46;;;;;;;6.95;5.30;;;;;;;14.90;100.00;101712.00;5115160;28;20035;-57
2022/07/23 02:33:12;;;;;;;6.43;5.50;;;;;;;14.91;100.00;101708.47;5115293;28;20044;-57
2022/07/23 02:35:37;;;;;;;6.03;5.28;;;;;;;14.87;99.77;101709.44;5115165;28;20043;-58
2022/07/23 02:38:02;;;;;;;8.95;5.82;;;;;;;14.78;100.00;101693.78;5114778;28;20054;-58
2022/07/23 02:40:27;;;;;;;7.95;5.82;;;;;;;14.81;100.00;101696.38;5115133;28;20035;-57
2022/07/23 02:42:53;;;;;;;8.25;5.53;;;;;;;14.76;100.00;101692.06;5114981;28;20038;-58
2022/07/23 02:45:18;;;;;;;8.77;5.40;;;;;;;14.85;100.00;101705.97;5114997;28;20068;-57
2022/07/23 02:47:43;;;;;;;6.00;5.40;;;;;;;14.80;99.55;101713.06;5114984;28;20043;-57
2022/07/23 02:50:09;;;;;;;7.97;5.43;;;;;;;14.74;99.38;101714.94;5114929;28;20031;-57
2022/07/23 02:52:34;;;;;;;6.43;5.68;;;;;;;14.60;100.00;101716.03;5114964;28;20039;-58
2022/07/23 02:54:59;;;;;;;6.40;5.75;;;;;;;14.52;100.00;101707.41;5114961;28;20071;-58
2022/07/23 02:57:24;;;;;;;6.85;5.95;;;;;;;14.58;100.00;101720.44;5114922;28;20031;-58
2022/07/23 02:59:50;;;;;;;7.78;5.75;;;;;;;14.61;100.00;101722.16;5114633;28;20043;-58
2022/07/23 03:02:15;;;;;;;9.18;5.72;;;;;;;14.65;100.00;101715.09;5114691;28;20065;-58
2022/07/23 03:04:42;;;;;;;7.20;5.82;;;;;;;14.62;100.00;101722.16;5114636;28;20050;-58
2022/07/23 03:07:07;;;;;;;6.97;5.65;;;;;;;14.59;100.00;101718.69;5114418;28;20092;-58
2022/07/23 03:09:33;;;;;;;7.15;6.07;;;;;;;14.49;100.00;101714.47;5114590;28;20392;-58
2022/07/23 03:11:58;;;;;;;6.82;6.13;;;;;;;14.50;100.00;101716.22;5114632;28;20031;-58
2022/07/23 03:14:23;;;;;;;7.63;5.88;;;;;;;14.41;100.00;101713.69;5114296;28;20036;-58
2022/07/23 03:16:49;;;;;;;7.43;6.65;;;;;;;14.37;100.00;101714.63;5114413;28;20035;-58
2022/07/23 03:19:15;;;;;;;7.95;6.70;;;;;;;14.31;100.00;101719.97;5114054;28;20031;-58
2022/07/23 03:21:40;;;;;;;7.32;6.50;;;;;;;14.29;100.00;101725.25;5114414;28;20063;-58
2022/07/23 03:24:08;;;;;;;8.82;7.03;;;;;;;14.27;100.00;101725.28;5114113;28;20084;-58
2022/07/23 03:26:33;;;;;;;8.77;7.30;;;;;;;14.30;100.00;101724.38;5114162;28;20065;-58
2022/07/23 03:29:01;;;;;;;8.55;7.53;;;;;;;14.24;100.00;101720.06;5114280;28;20058;-57
2022/07/23 03:31:26;;;;;;;8.80;7.22;;;;;;;14.27;100.00;101730.56;5113882;28;20044;-58
2022/07/23 03:33:51;;;;;;;8.70;7.55;;;;;;;14.28;100.00;101731.41;5114021;28;20031;-58
2022/07/23 03:36:16;;;;;;;8.55;6.85;;;;;;;14.31;100.00;101727.88;5113751;28;20043;-57
2022/07/23 03:38:42;;;;;;;8.63;7.22;;;;;;;14.36;100.00;101728.69;5114073;28;20035;-58
2022/07/23 03:41:07;;;;;;;8.90;7.25;;;;;;;14.36;100.00;101729.56;5113639;28;20760;-58
2022/07/23 03:43:33;;;;;;;8.88;7.22;;;;;;;14.44;100.00;101734.72;5113426;28;20058;-57
2022/07/23 03:45:58;;;;;;;9.32;6.88;;;;;;;14.42;100.00;101726.84;5113845;28;20043;-57
2022/07/23 03:48:24;;;;;;;10.27;7.57;;;;;;;14.45;100.00;101729.44;5114019;28;20027;-58
2022/07/23 03:50:49;;;;;;;10.20;7.20;;;;;;;14.44;100.00;101729.47;5113744;28;20342;-58
2022/07/23 03:53:14;;;;;;;11.00;7.95;;;;;;;14.44;100.00;101730.34;5113730;28;20046;-58
2022/07/23 03:55:40;;;;;;;8.05;7.22;;;;;;;14.46;100.00;101730.31;5113647;28;20342;-57
2022/07/23 03:58:05;;;;;;;11.27;8.15;;;;;;;14.47;100.00;101732.06;5113701;28;20036;-58
2022/07/23 04:00:30;;;;;;;11.10;7.85;;;;;;;14.47;100.00;101740.81;5113510;28;20035;-59
2022/07/23 04:02:55;;;;;;;8.68;7.38;;;;;;;14.41;100.00;101730.38;5113535;28;20054;-59
2022/07/23 04:05:21;;;;;;;8.80;7.32;;;;;;;14.27;100.00;101738.44;5113369;28;20122;-57
2022/07/23 04:07:46;;;;;;;9.82;7.30;;;;;;;14.24;100.00;101740.25;5113330;28;20043;-58
2022/07/23 04:10:11;;;;;;;11.20;8.32;;;;;;;14.26;100.00;101741.09;5113503;28;20710;-57
2022/07/23 04:12:37;;;;;;;9.30;8.25;;;;;;;14.31;100.00;101736.66;5113269;28;20077;-56
2022/07/23 04:15:03;;;;;;;10.60;8.48;;;;;;;14.38;100.00;101747.94;5113170;28;20088;-59
2022/07/23 04:17:28;;;;;;;10.57;8.95;;;;;;;14.37;100.00;101739.19;5113204;28;20035;-57
2022/07/23 04:19:54;;;;;;;11.35;9.00;;;;;;;14.39;100.00;101742.66;5113067;28;20046;-58
2022/07/23 04:22:19;;;;;;;11.43;8.43;;;;;;;14.31;100.00;101748.94;5113004;28;20144;-57
2022/07/23 04:24:44;;;;;;;10.45;8.82;;;;;;;14.21;100.00;101740.28;5113149;28;20032;-58
2022/07/23 04:27:10;;;;;;;10.80;9.23;;;;;;;14.28;100.00;101757.75;5113108;28;20031;-58
2022/07/23 04:29:35;;;;;;;9.68;8.68;;;;;;;14.32;100.00;101753.31;5112294;28;20439;-58
2022/07/23 04:32:01;;;;;;;12.20;9.57;;;;;;;14.41;100.00;101761.09;5112486;28;20062;-58
2022/07/23 04:34:26;;;;;;;13.65;9.45;;;;;;;14.48;100.00;101760.13;5112945;28;20453;-58
2022/07/23 04:36:53;;;;;;;12.75;9.73;;;;;;;14.49;100.00;101762.75;5112909;28;20114;-58
2022/07/23 04:39:18;;;;;;;11.82;9.95;;;;;;;14.53;100.00;101755.69;5112891;28;20039;-58
2022/07/23 04:41:43;;;;;;;12.82;10.55;;;;;;;14.57;100.00;101767.88;5112684;28;20039;-57
2022/07/23 04:44:08;;;;;;;11.88;9.82;;;;;;;14.63;100.00;101765.16;5112557;28;20035;-59
2022/07/23 04:46:34;;;;;;;13.25;10.50;;;;;;;14.64;100.00;101772.19;5112684;28;20042;-58
2022/07/23 04:48:59;;;;;;;11.73;10.50;;;;;;;14.65;100.00;101773.03;5112495;28;20041;-57
2022/07/23 04:51:24;;;;;;;14.48;10.50;;;;;;;14.65;100.00;101773.91;5112630;28;20430;-58
2022/07/23 04:53:49;;;;;;;12.07;9.90;;;;;;;14.67;100.00;101782.69;5112455;28;20063;-58
2022/07/23 04:56:15;;;;;;;15.63;11.27;;;;;;;14.63;100.00;101773.94;5112455;28;20062;-58
2022/07/23 04:58:41;;;;;;;15.90;10.77;;;;;;;14.66;100.00;101778.28;5112494;28;20051;-58
2022/07/23 05:01:06;;;;;;;13.35;11.77;;;;;;;14.67;100.00;101774.78;5112559;28;20101;-58
2022/07/23 05:03:32;;;;;;;15.98;11.75;;;;;;;14.71;100.00;101780.88;5112302;28;20051;-58
2022/07/23 05:05:57;;;;;;;15.35;11.50;;;;;;;14.74;100.00;101776.41;5112319;28;20374;-57
2022/07/23 05:08:23;;;;;;;14.85;11.82;;;;;;;14.79;100.00;101774.56;5112111;28;20047;-58
2022/07/23 05:10:48;;;;;;;14.93;10.85;;;;;;;14.82;100.00;101773.66;5112329;28;20036;-58
2022/07/23 05:13:15;;;;;;;15.88;11.48;;;;;;;14.87;100.00;101777.09;5112521;28;20066;-58
2022/07/23 05:15:40;;;;;;;13.82;11.63;;;;;;;14.94;100.00;101781.34;5112196;28;20460;-58
2022/07/23 05:18:06;;;;;;;13.43;10.80;;;;;;;14.98;100.00;101777.78;5111865;28;20111;-58
2022/07/23 05:20:31;;;;;;;13.82;11.48;;;;;;;14.96;100.00;101774.28;5112223;28;20118;-57
2022/07/23 05:22:56;;;;;;;12.77;10.95;;;;;;;14.93;100.00;101777.84;5111112;28;20385;-58
2022/07/23 05:25:22;;;;;;;14.77;10.77;;;;;;;15.00;100.00;101783.03;5091806;28;20046;-58
2022/07/23 05:27:47;;;;;;;13.02;10.77;;;;;;;15.01;100.00;101785.63;5091807;28;20047;-57
2022/07/23 05:30:12;;;;;;;16.75;11.43;;;;;;;14.93;100.00;101795.41;5091670;28;20079;-58
2022/07/23 05:32:38;;;;;;;13.05;11.20;;;;;;;14.91;100.00;101784.91;5091657;28;20409;-58
2022/07/23 05:35:05;;;;;;;14.43;11.85;;;;;;;14.92;100.00;101791.91;5091624;28;20032;-57
2022/07/23 05:37:30;;;;;;;13.35;11.52;;;;;;;15.00;100.00;101780.41;5091711;28;20109;-58
2022/07/23 05:40:00;;;;;;;14.60;11.70;;;;;;;15.01;100.00;101793.53;5091735;28;20036;-58
2022/07/23 05:42:25;;;;;;;13.27;11.18;;;;;;;15.05;100.00;101794.38;5094679;28;20374;-57
2022/07/23 05:44:51;;;;;;;13.63;11.70;;;;;;;15.04;100.00;101790.00;5095524;28;20036;-58
2022/07/23 05:47:17;;;;;;;16.20;11.85;;;;;;;15.12;100.00;101794.22;5095932;28;20042;-58
2022/07/23 05:49:42;;;;;;;13.68;11.48;;;;;;;15.14;100.00;101800.34;5095322;28;20448;-58
2022/07/23 05:52:09;;;;;;;18.60;12.05;;;;;;;15.15;100.00;101804.72;5095667;28;20057;-58
2022/07/23 05:54:35;;;;;;;13.15;11.52;;;;;;;15.16;100.00;101809.09;5095614;28;20112;-58
2022/07/23 05:57:00;;;;;;;15.98;11.68;;;;;;;15.20;100.00;101809.94;5095511;28;20082;-57
2022/07/23 05:59:26;;;;;;;14.77;11.50;;;;;;;15.15;100.00;101794.19;5095434;28;20584;-58
2022/07/23 06:01:51;;;;;;;15.73;12.13;;;;;;;15.33;100.00;101808.81;5095579;28;20032;-58
2022/07/23 06:04:16;;;;;;;17.75;12.07;;;;;;;15.38;100.00;101808.75;5095335;28;20035;-58
2022/07/23 06:06:41;;;;;;;16.45;11.35;;;;;;;15.41;100.00;101824.53;5095485;28;20415;-57
2022/07/23 06:09:07;;;;;;;14.18;11.32;;;;;;;15.47;100.00;101820.00;5095319;28;20048;-58
2022/07/23 06:11:32;;;;;;;13.85;11.55;;;;;;;15.43;100.00;101818.28;5095422;28;20032;-58
2022/07/23 06:13:58;;;;;;;13.43;11.82;;;;;;;15.55;100.00;101830.41;5095014;28;20078;-58
2022/07/23 06:16:23;;;;;;;13.70;11.27;;;;;;;15.61;100.00;101830.31;5095095;28;20039;-58
2022/07/23 06:18:48;;;;;;;14.68;10.82;;;;;;;15.65;100.00;101824.09;5076677;28;20062;-58
2022/07/23 06:21:14;;;;;;;15.73;11.70;;;;;;;15.74;100.00;101825.69;5094839;28;20112;-58
2022/07/23 06:23:39;;;;;;;12.27;10.48;;;;;;;16.54;98.12;101825.78;5095019;28;20105;-56
2022/07/23 06:26:05;;;;;;;12.75;9.88;;;;;;;18.12;90.34;101815.59;5095085;28;20028;-57
2022/07/23 06:28:30;;;;;;;11.80;9.15;;;;;;;19.48;81.79;101808.53;5094914;28;20043;-58
2022/07/23 06:30:55;;;;;;;12.13;8.47;;;;;;;19.13;79.45;101817.72;5094806;28;20040;-58
2022/07/23 06:33:21;;;;;;;9.95;8.60;;;;;;;18.48;82.10;101811.84;5094759;28;20304;-58
2022/07/23 06:35:46;;;;;;;10.07;8.90;;;;;;;17.89;85.47;101819.75;5094827;28;20389;-59
2022/07/23 06:38:12;;;;;;;12.25;9.68;;;;;;;17.46;87.61;101824.47;5094620;28;20379;-59
2022/07/23 06:40:38;;;;;;;13.00;9.63;;;;;;;17.22;89.56;101820.66;5094854;28;20032;-59
2022/07/23 06:43:03;;;;;;;10.77;8.73;;;;;;;17.07;89.91;101824.56;5094169;28;20448;-59
2022/07/23 06:45:29;;;;;;;11.55;9.10;;;;;;;16.92;90.93;101820.50;5094511;28;20795;-59
2022/07/23 06:47:54;;;;;;;10.57;8.80;;;;;;;16.95;92.08;101825.72;5094424;28;20732;-59
2022/07/23 06:50:19;;;;;;;11.13;8.02;;;;;;;16.88;90.22;101828.53;5094417;28;20112;-59
2022/07/23 06:52:44;;;;;;;9.10;7.70;;;;;;;16.81;90.86;101827.81;5114213;28;20040;-60
2022/07/23 06:55:10;;;;;;;9.43;6.80;;;;;;;16.80;89.81;101836.66;5114723;28;20100;-59
2022/07/23 06:57:35;;;;;;;8.32;7.07;;;;;;;16.78;89.30;101838.47;5114564;28;20397;-59
2022/07/23 07:00:01;;;;;;;10.00;6.75;;;;;;;16.75;88.84;101830.63;5114725;28;20031;-61
2022/07/23 07:02:26;;;;;;;9.07;5.97;;;;;;;16.74;87.50;101826.22;5114605;28;20035;-61
2022/07/23 07:04:52;;;;;;;11.85;6.43;;;;;;;16.74;87.87;101814.78;5114636;28;20076;-59
2022/07/23 07:07:18;;;;;;;7.68;5.68;;;;;;;16.78;88.05;101829.69;5114446;28;20073;-59
2022/07/23 07:09:44;;;;;;;9.45;5.95;;;;;;;16.80;87.66;101822.56;5114154;28;20047;-59
2022/07/23 07:12:09;;;;;;;8.43;6.10;;;;;;;16.83;87.03;101823.34;5114520;28;20035;-60
2022/07/23 07:14:34;;;;;;;8.27;6.25;;;;;;;16.81;87.02;101819.00;5114187;28;20058;-59
2022/07/23 07:16:59;;;;;;;10.63;6.50;;;;;;;16.82;87.49;101829.56;5114291;28;20054;-60
2022/07/23 07:19:25;;;;;;;9.85;6.00;;;;;;;16.89;87.95;101817.94;5114339;28;20308;-59
2022/07/23 07:21:50;;;;;;;7.57;6.03;;;;;;;17.00;88.45;101820.31;5114022;28;20074;-59
2022/07/23 07:24:15;;;;;;;7.60;6.80;;;;;;;17.11;88.35;101820.06;5113834;28;20032;-60
2022/07/23 07:26:41;;;;;;;9.98;7.32;;;;;;;17.23;88.51;101830.34;5114268;28;20435;-60
2022/07/23 07:29:06;;;;;;;10.73;7.95;;;;;;;17.32;86.50;101828.31;5114132;28;20369;-58
2022/07/23 07:31:32;;;;;;;8.50;7.07;;;;;;;17.41;86.68;101832.50;5113793;28;20143;-59
2022/07/23 07:33:58;;;;;;;10.02;8.05;;;;;;;17.52;86.50;101835.72;5113971;28;20043;-58
2022/07/23 07:36:23;;;;;;;9.45;7.80;;;;;;;17.64;86.44;101827.53;5113954;28;20529;-59
2022/07/23 07:38:49;;;;;;;10.77;8.55;;;;;;;17.89;86.05;101846.22;5113508;28;20070;-60
2022/07/23 07:41:14;;;;;;;9.23;7.63;;;;;;;17.95;85.67;101840.78;5114040;28;20067;-59
2022/07/23 07:43:39;;;;;;;9.15;7.20;;;;;;;17.91;83.67;101830.31;5113833;28;20328;-59
2022/07/23 07:46:06;;;;;;;10.98;7.72;;;;;;;17.91;84.57;101832.97;5113592;28;20369;-59
2022/07/23 07:48:31;;;;;;;8.90;7.72;;;;;;;17.89;84.06;101830.34;5113779;28;20068;-58
2022/07/23 07:50:57;;;;;;;8.15;7.13;;;;;;;17.86;83.78;101832.22;5113740;28;20376;-58
2022/07/23 07:53:22;;;;;;;9.27;6.13;;;;;;;17.90;83.81;101836.50;5100410;28;20036;-59
2022/07/23 07:55:48;;;;;;;9.32;7.00;;;;;;;17.95;84.68;101839.91;5093454;28;20043;-58
2022/07/23 07:58:13;;;;;;;7.43;6.60;;;;;;;18.02;83.38;101836.16;5092940;28;20633;-58
2022/07/23 08:00:38;;;;;;;8.43;7.10;;;;;;;18.06;82.97;101838.69;5093121;28;20028;-58
2022/07/23 08:03:04;;;;;;;11.43;6.45;;;;;;;17.98;80.47;101837.19;5093082;28;20308;-58
2022/07/23 08:05:30;;;;;;;8.93;6.35;;;;;;;17.98;80.04;101845.13;5092148;28;20377;-58
2022/07/23 08:07:57;;;;;;;7.25;5.35;;;;;;;18.00;76.59;101838.00;5092983;28;20039;-58
2022/07/23 08:10:24;;;;;;;6.80;4.20;;;;;;;18.05;75.79;101846.66;5092885;28;20043;-58
2022/07/23 08:12:56;;;;;;;10.52;6.82;;;;;;;18.07;76.96;101844.84;5092814;28;20101;-58
2022/07/23 08:15:23;;;;;;;7.35;6.47;;;;;;;18.07;77.98;101839.56;5092826;28;20059;-58
2022/07/23 08:17:49;;;;;;;8.77;6.25;;;;;;;18.18;78.75;101849.88;5092583;28;20032;-58
2022/07/23 08:20:16;;;;;;;9.30;6.18;;;;;;;18.18;79.22;101853.38;5092813;28;20040;-59
2022/07/23 08:22:42;;;;;;;8.85;6.30;;;;;;;18.09;78.45;101832.44;5092511;28;20064;-58
2022/07/23 08:25:09;;;;;;;9.65;5.88;;;;;;;18.20;78.42;101851.53;5092863;28;20027;-58
2022/07/23 08:27:34;;;;;;;8.98;6.47;;;;;;;18.32;79.37;101855.63;5094504;28;20042;-52
2022/07/23 08:29:59;;;;;;;7.97;6.13;;;;;;;18.47;78.21;101856.94;5092440;28;20123;-59
2022/07/23 08:32:24;;;;;;;8.20;5.78;;;;;;;18.75;77.80;101861.38;5092274;28;20811;-50
2022/07/23 08:34:50;;;;;;;9.05;5.22;;;;;;;18.87;75.27;101864.59;5092317;28;20028;-52
2022/07/23 08:37:15;;;;;;;6.57;5.15;;;;;;;18.96;74.91;101864.28;5092027;28;20733;-57
2022/07/23 08:39:40;;;;;;;7.37;5.20;;;;;;;19.03;75.06;101858.75;5092623;28;20124;-58
2022/07/23 08:42:06;;;;;;;6.77;5.43;;;;;;;19.07;74.60;101870.09;5091898;28;20262;-58
2022/07/23 08:44:35;;;;;;;6.93;5.63;;;;;;;19.02;73.07;101867.63;5092583;28;20721;-58
2022/07/23 08:47:00;;;;;;;8.73;5.88;;;;;;;19.04;72.58;101867.56;5092120;28;20043;-58
2022/07/23 08:49:27;;;;;;;8.23;6.28;;;;;;;19.02;73.41;101875.59;5092502;28;20134;-57
2022/07/23 08:51:53;;;;;;;8.57;6.00;;;;;;;19.01;74.24;101865.88;5092332;28;20115;-59
2022/07/23 08:54:18;;;;;;;7.03;5.60;;;;;;;19.06;74.17;101869.22;5092158;28;20112;-59
2022/07/23 08:56:44;;;;;;;6.85;5.40;;;;;;;19.12;73.37;101870.81;5092102;28;20040;-57
2022/07/23 08:59:13;;;;;;;9.32;5.10;;;;;;;19.08;72.31;101867.41;5092082;28;20097;-58
2022/07/23 09:01:38;;;;;;;7.43;5.75;;;;;;;19.08;72.40;101883.31;5092136;28;20036;-58
2022/07/23 09:04:04;;;;;;;6.47;5.53;;;;;;;19.20;74.46;101874.13;5091914;28;20329;-59
2022/07/23 09:06:29;;;;;;;6.65;4.70;;;;;;;19.32;72.33;101863.09;5091969;28;20036;-59
2022/07/23 09:08:55;;;;;;;7.50;5.10;;;;;;;19.56;71.36;101869.41;5092036;28;20035;-59
2022/07/23 09:11:20;;;;;;;9.13;5.53;;;;;;;19.68;71.70;101866.31;5091646;28;20028;-59
2022/07/23 09:13:48;;;;;;;7.25;5.13;;;;;;;20.04;70.54;101861.47;5091800;28;20695;-59
2022/07/23 09:16:16;;;;;;;7.57;5.22;;;;;;;20.43;70.01;101860.94;5091302;28;20036;-59
2022/07/23 09:18:52;;;;;;;10.18;4.85;;;;;;;21.18;67.09;101850.81;5091814;28;20040;-59
2022/07/23 09:21:29;;;;;;;6.43;4.50;;;;;;;22.66;61.06;101846.94;5091753;28;20534;-59
2022/07/23 09:24:17;;;;;;;7.22;3.83;;;;;;;24.00;59.93;101837.47;5091429;28;20040;-59
2022/07/23 09:26:47;;;;;;;6.07;4.45;;;;;;;24.75;51.26;101836.91;5091642;28;20036;-59
2022/07/23 09:29:18;;;;;;;6.75;4.18;;;;;;;25.45;53.62;101833.69;5091696;28;20035;-59
2022/07/23 09:31:53;;;;;;;5.30;3.90;;;;;;;25.00;54.29;101845.28;5091542;28;20507;-59
2022/07/23 09:34:40;;;;;;;5.85;4.15;;;;;;;25.07;54.80;101843.97;5091671;28;20035;-59
2022/07/23 09:37:16;;;;;;;5.15;3.70;;;;;;;24.54;54.11;101855.03;5091636;28;20435;-59
2022/07/23 09:39:43;;;;;;;5.82;3.95;;;;;;;23.67;54.16;101859.72;5091384;28;20340;-59
2022/07/23 09:42:20;;;;;;;6.00;4.07;;;;;;;23.20;56.54;101860.25;5091534;28;20028;-59
2022/07/23 09:44:48;;;;;;;5.97;3.50;;;;;;;22.56;56.92;101863.38;5091264;28;20363;-59
2022/07/23 09:47:14;;;;;;;5.57;3.50;;;;;;;22.39;59.75;101867.75;5091316;28;20042;-59
2022/07/23 09:49:39;;;;;;;6.50;3.95;;;;;;;22.12;58.70;101862.78;5091317;28;20721;-59
2022/07/23 09:52:05;;;;;;;6.28;3.60;;;;;;;22.02;60.80;101863.22;5091437;28;20039;-59
2022/07/23 09:54:39;;;;;;;4.03;3.60;;;;;;;22.12;63.47;101864.56;5091376;28;20461;-59
2022/07/23 09:57:16;;;;;;;6.20;4.18;;;;;;;22.29;61.66;101867.34;5091472;28;20093;-60
2022/07/23 09:59:43;;;;;;;7.30;3.85;;;;;;;22.33;60.63;101865.41;5090867;28;20490;-58
2022/07/23 10:02:11;;;;;;;5.13;3.40;;;;;;;22.41;58.89;101865.88;5073349;28;20695;-59
2022/07/23 10:04:36;;;;;;;4.90;3.47;;;;;;;22.53;61.20;101862.63;5091249;28;20024;-59
2022/07/23 10:07:04;;;;;;;6.55;3.28;;;;;;;22.39;57.80;101854.41;5091110;28;20500;-59
2022/07/23 10:09:34;;;;;;;5.32;3.10;;;;;;;22.40;59.40;101858.81;5091236;28;20032;-59
2022/07/23 10:14:47;;;;;;;6.05;3.35;;;;;;;22.64;58.34;101859.47;5091329;28;20485;-59
2022/07/23 10:17:13;;;;;;;4.68;3.53;;;;;;;22.68;58.13;101861.06;5091061;28;20405;-59
2022/07/23 10:19:39;;;;;;;7.63;3.53;;;;;;;22.73;56.66;101854.56;5091252;28;20031;-59
2022/07/23 10:22:18;;;;;;;4.22;3.20;;;;;;;22.83;58.50;101855.91;5091232;28;20105;-59
2022/07/23 10:25:08;;;;;;;4.53;3.15;;;;;;;22.92;58.20;101854.56;5090935;28;20052;-59
2022/07/23 10:28:27;;;;;;;5.72;3.20;;;;;;;23.02;58.16;101855.88;5091274;28;20040;-59
2022/07/23 10:31:14;;;;;;;5.40;3.45;;;;;;;23.10;57.63;101855.47;4992580;28;20034;-59
2022/07/23 10:34:15;;;;;;;5.00;3.90;;;;;;;23.01;56.11;101858.59;5087890;28;20110;-59
2022/07/23 10:36:55;;;;;;;5.65;3.00;;;;;;;23.08;56.09;101850.19;5094380;28;20340;-61
2022/07/23 10:39:30;;;;;;;5.53;3.60;;;;;;;23.06;56.39;101852.06;5094605;28;20032;-60
2022/07/23 10:42:16;;;;;;;5.20;3.58;;;;;;;23.22;57.36;101862.88;5094480;28;20032;-59
2022/07/23 10:44:44;;;;;;;5.28;3.10;;;;;;;23.27;54.37;101858.16;5094611;28;20040;-59
2022/07/23 10:47:25;;;;;;;4.47;3.25;;;;;;;23.33;55.67;101860.53;5094639;28;20031;-59
2022/07/23 10:49:50;;;;;;;4.63;3.05;;;;;;;23.59;56.42;101851.22;5094144;28;20046;-59
2022/07/23 10:52:17;;;;;;;3.72;2.70;;;;;;;23.67;53.45;101858.84;5093954;28;20379;-60
2022/07/23 10:54:45;;;;;;;2.67;2.17;;;;;;;23.59;51.82;101856.56;5094319;28;20036;-60
2022/07/23 10:57:12;;;;;;;2.50;2.10;;;;;;;23.60;51.92;101842.25;5094209;28;20443;-59
2022/07/23 11:00:09;;;;;;;3.10;2.50;;;;;;;23.54;53.38;101850.59;5094260;28;20051;-60
2022/07/23 11:02:35;;;;;;;3.28;2.60;;;;;;;23.55;52.28;101855.84;5094104;28;20028;-59
2022/07/23 11:05:06;;;;;;;3.38;2.40;;;;;;;23.52;52.75;101855.16;5094084;28;20036;-59
2022/07/23 11:07:32;;;;;;;3.45;2.50;;;;;;;23.51;52.24;101846.28;5094297;28;20032;-59
2022/07/23 11:09:58;;;;;;;4.32;2.20;;;;;;;23.73;52.63;101848.69;5094045;28;20466;-59
2022/07/23 11:12:29;;;;;;;10.05;2.45;;;;;;;23.72;50.92;101855.00;5093943;28;20070;-59
2022/07/23 11:15:04;;;;;;;2.97;2.30;;;;;;;23.84;51.37;101853.47;5093567;28;20458;-59
2022/07/23 11:17:31;;;;;;;5.15;3.15;;;;;;;23.71;51.59;101847.06;5093777;28;20721;-60
2022/07/23 11:20:17;;;;;;;3.72;2.67;;;;;;;23.95;53.45;101854.63;5093803;28;20047;-59
2022/07/23 11:22:42;;;;;;;4.03;2.45;;;;;;;24.11;50.67;101845.78;5093670;28;20032;-60